ADDS METAR Data INFO
IDs: Format: Raw Decoded Include TAF

Data at: 1054 UTC 20 Sep 2017

KAPY 201035Z AUTO 13006KT 10SM SCT015 26/22 A2983 RMK AO2 T02670226
KAPY 201015Z AUTO 14008KT 10SM SCT015 26/22 A2983 RMK AO2 T02670226
KAPY 200955Z AUTO 13006KT 10SM CLR 27/22 A2983 RMK AO2 T02700226
KAPY 200935Z AUTO 13008G14KT 10SM CLR 27/22 A2983 RMK AO2 T02700226
KAPY 200915Z AUTO 13007G14KT 10SM CLR 27/22 A2983 RMK AO2 T02710226
KAPY 200855Z AUTO 14008KT 10SM CLR 27/22 A2983 RMK AO2 T02720225
KAPY 200835Z AUTO 14009G14KT 10SM CLR 27/22 A2984 RMK AO2 T02730225
KAPY 200815Z AUTO 14008KT 10SM CLR 27/22 A2984 RMK AO2 T02750224
KAPY 200755Z AUTO 14009KT 10SM CLR 27/22 A2985 RMK AO2 T02760224
KAPY 200735Z AUTO 14008KT 10SM CLR 27/22 A2984 RMK AO2 T02760222
KAPY 200715Z AUTO 13007KT 10SM CLR 27/22 A2985 RMK AO2 T02780220
KAPY 200655Z AUTO 14008KT 10SM CLR 27/21 A2985 RMK AO2 T02800216
KAPY 200635Z AUTO 14008KT 10SM CLR 28/21 A2985 RMK AO2 T02820213
KAPY 200615Z AUTO 14007KT 10SM CLR 28/21 A2984 RMK AO2 T02840214
KAPY 200555Z AUTO 14008KT 10SM CLR 28/21 A2984 RMK AO2 T02860215
KAPY 200535Z AUTO 13010KT 10SM CLR 28/21 A2984 RMK AO2 T02900212
KAPY 200515Z AUTO 13009G16KT 10SM CLR 29/21 A2984 RMK AO2 T02920210
KAPY 200455Z AUTO 14011G16KT 10SM CLR 29/21 A2985 RMK AO2 T02950211
KAPY 200435Z AUTO 13009G15KT 10SM CLR 30/21 A2985 RMK AO2 T02990210
KAPY 200415Z AUTO 14015G22KT 10SM CLR 30/21 A2984 RMK AO2 T03030208
KAPY 200355Z AUTO 14012G21KT 10SM CLR 30/20 A2983 RMK AO2 T03070205
KAPY 200335Z AUTO 14010G20KT 10SM CLR 31/20 A2984 RMK AO2 T03110202
KAPY 200315Z AUTO 12011G17KT 10SM CLR 31/20 A2984 RMK AO2 T03160197
KAPY 200255Z AUTO 13011G17KT 10SM CLR 32/19 A2983 RMK AO2 T03220193
KAPY 200235Z AUTO 13008G17KT 10SM CLR 32/18 A2982 RMK AO2 T03270191
KAPY 200215Z AUTO 13008KT 10SM CLR 32/19 A2981 RMK AO2 T03300192
KAPY 200155Z AUTO 12007G18KT 10SM CLR 33/18 A2980 RMK AO2 T03350191
KAPY 200135Z AUTO 12008KT 10SM CLR 33/18 A2980 RMK AO2 T03380188
KAPY 200115Z AUTO 13010KT 10SM CLR 34/18 A2979 RMK AO2 T03420185
KAPY 200055Z AUTO 13007KT 10SM CLR 35/17 A2979 RMK AO2 LTG DSNT N T03470180
KAPY 200035Z AUTO 13008KT 10SM CLR 35/17 A2978 RMK AO2 T03520177
KAPY 200015Z AUTO 13008KT 10SM CLR 36/17 A2977 RMK AO2 T03590171
KAPY 192355Z AUTO 13008KT 10SM CLR 36/17 A2977 RMK AO2 T03610170
KAPY 192335Z AUTO 12011G17KT 090V150 10SM SCT085 36/17 A2976 RMK AO2 LTG DSNT SW T03650170
KAPY 192315Z AUTO 11013G17KT 10SM SCT080 SCT095 37/16 A2975 RMK AO2 T03710163
KAPY 192255Z AUTO 10012G18KT 10SM BKN080 BKN095 BKN120 37/16 A2975 RMK AO2 LTG DSNT NW T03790165
KAPY 192235Z AUTO 12010G15KT 10SM SCT070 SCT095 SCT120 38/16 A2975 RMK AO2 LTG DSNT SW T03800166
KAPY 192215Z AUTO 14010G17KT 10SM SCT070 37/16 A2976 RMK AO2 LTG DSNT S T03720168
KAPY 192155Z AUTO 12009KT 100V170 10SM SCT070 SCT090 37/16 A2976 RMK AO2 T03780168
KAPY 192135Z AUTO 11011G17KT 10SM SCT070 SCT090 37/17 A2977 RMK AO2 T03770170
KAPY 192115Z AUTO 11010G18KT 10SM SCT070 SCT080 37/17 A2977 RMK AO2 T03780170
KAPY 192055Z AUTO 11007G15KT 10SM SCT070 SCT090 37/16 A2978 RMK AO2 T03780169
KAPY 192035Z AUTO 14010KT 10SM BKN070 BKN090 38/17 A2979 RMK AO2 T03850172
KAPY 192015Z AUTO 14005G19KT 10SM SCT060 37/17 A2980 RMK AO2 T03780171
KAPY 191955Z AUTO 14007G17KT 10SM SCT060 37/17 A2981 RMK AO2 T03760172
KAPY 191935Z AUTO 14007G16KT 10SM SCT060 SCT070 36/17 A2982 RMK AO2 T03680176
KAPY 191915Z AUTO 13008KT 10SM SCT050 36/17 A2983 RMK AO2 T03660180
KAPY 191855Z AUTO 14011G15KT 120V180 10SM SCT050 36/18 A2984 RMK AO2 T03660187
KAPY 191835Z AUTO 13009G16KT 10SM SCT050 36/18 A2985 RMK AO2 T03660186
KAPY 191815Z AUTO 13007G15KT 120V190 10SM SCT048 36/19 A2987 RMK AO2 T03600195
KAPY 191755Z AUTO 16008G14KT 10SM SCT046 35/20 A2987 RMK AO2 T03500199
KAPY 191735Z AUTO 15009G14KT 10SM SCT042 35/20 A2989 RMK AO2 T03470204
KAPY 191715Z AUTO 16008G14KT 120V180 10SM SCT040 34/20 A2989 RMK AO2 T03430207
KAPY 191655Z AUTO 13010G14KT 10SM SCT038 34/21 A2990 RMK AO2 T03420211
KAPY 191635Z AUTO 15009KT 10SM CLR 33/21 A2991 RMK AO2 T03350213
KAPY 191615Z AUTO 13013G17KT 10SM SCT030 32/21 A2991 RMK AO2 T03260213
KAPY 191555Z AUTO 16012G17KT 10SM SCT028 32/21 A2992 RMK AO2 T03220216
KAPY 191535Z AUTO 15009G16KT 10SM SCT026 31/21 A2992 RMK AO2 T03180218
KAPY 191515Z AUTO 17010G17KT 10SM SCT024 30/22 A2992 RMK AO2 T03040220
KAPY 191455Z AUTO 16010G14KT 10SM SCT020 30/22 A2992 RMK AO2 T03030222
KAPY 191435Z AUTO 15012G16KT 7SM SCT018 29/22 A2992 RMK AO2 T02920225
KAPY 191415Z AUTO 14012G16KT 7SM BKN016 28/22 A2991 RMK AO2 T02870227
KAPY 191355Z AUTO 14009G14KT 7SM BKN012 BKN018 27/22 A2991 RMK AO2 T02780230
KAPY 191335Z AUTO 15010G15KT 7SM SCT012 27/22 A2991 RMK AO2 T02720230
KAPY 191315Z AUTO 14005KT 5SM HZ CLR 26/22 A2991 RMK AO2 T02660230
KAPY 191255Z AUTO 13004KT 5SM HZ CLR 26/22 A2991 RMK AO2 T02630230
KAPY 191235Z AUTO 13005KT 7SM CLR 26/22 A2990 RMK AO2 T02620228
KAPY 191215Z AUTO 13004KT 7SM CLR 26/22 A2990 RMK AO2 T02620228
KAPY 191155Z AUTO 13004KT 7SM CLR 26/22 A2990 RMK AO2 T02650228
KAPY 191135Z AUTO 13005KT 7SM CLR 26/22 A2989 RMK AO2 T02650227
KAPY 191115Z AUTO 13005KT 7SM CLR 26/22 A2989 RMK AO2 T02670226
KAPY 191055Z AUTO 13007KT 7SM CLR 26/22 A2989 RMK AO2 T02670226
KAPY 191035Z AUTO 14007KT 10SM CLR 26/22 A2989 RMK AO2 T02680226
KAPY 191015Z AUTO 13005KT 10SM SCT018 27/22 A2989 RMK AO2 T02700227
KAPY 190955Z AUTO 13007KT 10SM BKN018 27/22 A2989 RMK AO2 T02710227
KAPY 190935Z AUTO 14008KT 10SM SCT018 27/22 A2989 RMK AO2 T02710226
KAPY 190915Z AUTO 14009KT 10SM BKN018 27/22 A2989 RMK AO2 T02730226
KAPY 190850Z AUTO 14011KT 10SM SCT018 BKN075 27/22 A2989 RMK AO2 T02730225
KAPY 190835Z AUTO 14008G14KT 10SM SCT018 27/22 A2990 RMK AO2 T02720225
KAPY 190815Z AUTO 14008G15KT 10SM CLR 27/22 A2989 RMK AO2 T02720222
KAPY 190755Z AUTO 13007G14KT 10SM CLR 27/22 A2990 RMK AO2 T02730220
KAPY 190735Z AUTO 13005KT 10SM CLR 27/21 A2990 RMK AO2 T02750218
KAPY 190715Z AUTO 13009G14KT 10SM CLR 27/21 A2990 RMK AO2 T02780216
KAPY 190655Z AUTO 14010G14KT 10SM CLR 27/21 A2990 RMK AO2 T02800212
KAPY 190635Z AUTO 12006G14KT 10SM CLR 28/21 A2990 RMK AO2 T02830211
KAPY 190615Z AUTO 12006KT 10SM CLR 28/20 A2990 RMK AO2 T02850207
KAPY 190555Z AUTO 12012G18KT 10SM CLR 28/20 A2990 RMK AO2 T02890205
KAPY 190535Z AUTO 13011G17KT 10SM CLR 28/21 A2989 RMK AO2 T02910209
KAPY 190515Z AUTO 14010G16KT 10SM CLR 29/21 A2990 RMK AO2 T02930215
KAPY 190455Z AUTO 13010G15KT 10SM CLR 29/21 A2990 RMK AO2 T02970215
KAPY 190435Z AUTO 13008G14KT 10SM CLR 30/21 A2990 RMK AO2 T03000215
KAPY 190415Z AUTO 14007KT 10SM CLR 30/21 A2989 RMK AO2 T03040215
KAPY 190355Z AUTO 13008G14KT 10SM CLR 30/21 A2989 RMK AO2 T03060215
KAPY 190335Z AUTO 13006KT 10SM CLR 31/21 A2989 RMK AO2 T03100210
KAPY 190315Z AUTO 13011G15KT 10SM CLR 31/20 A2988 RMK AO2 T03150205
KAPY 190255Z AUTO 12007G14KT 10SM CLR 31/20 A2987 RMK AO2 T03180200
KAPY 190235Z AUTO 13011G15KT 10SM CLR 32/20 A2987 RMK AO2 T03220197
KAPY 190215Z AUTO 13007G19KT 10SM CLR 32/20 A2986 RMK AO2 T03270198
KAPY 190155Z AUTO 14009G18KT 10SM CLR 33/20 A2985 RMK AO2 T03310198
KAPY 190135Z AUTO 14010G17KT 10SM SCT080 33/19 A2984 RMK AO2 T03360195
KAPY 190115Z AUTO 14010G15KT 10SM BKN080 34/18 A2983 RMK AO2 T03430191
KAPY 190055Z AUTO 13009KT 10SM BKN070 35/17 A2982 RMK AO2 T03500178
KAPY 190035Z AUTO 14005KT 10SM SCT070 SCT085 35/17 A2982 RMK AO2 T03540176
KAPY 190015Z AUTO 15008KT 10SM SCT070 36/17 A2982 RMK AO2 T03600176
KAPY 182355Z AUTO 13007KT 10SM SCT070 36/17 A2981 RMK AO2 T03650173
KAPY 182335Z AUTO 13007KT 10SM CLR 36/17 A2982 RMK AO2 T03670172
KAPY 182315Z AUTO 16007KT 130V190 10SM CLR 37/17 A2982 RMK AO2 T03700174
KAPY 182255Z AUTO 14007G14KT 10SM CLR 37/17 A2982 RMK AO2 T03750174